sensor_id;sensor_type;location;lat;lon;timestamp;pressure;altitude;pressure_sealevel;temperature
40199;BMP280;25906;43.536;26.068;2023-10-08T00:01:57;99038.25;;;15.72
40199;BMP280;25906;43.536;26.068;2023-10-08T00:04:43;99026.84;;;15.63
40199;BMP280;25906;43.536;26.068;2023-10-08T00:07:29;99031.75;;;15.64
40199;BMP280;25906;43.536;26.068;2023-10-08T00:10:15;99028.00;;;15.71
40199;BMP280;25906;43.536;26.068;2023-10-08T00:13:00;99028.44;;;15.78
40199;BMP280;25906;43.536;26.068;2023-10-08T00:15:46;99025.97;;;15.66
40199;BMP280;25906;43.536;26.068;2023-10-08T00:18:38;99019.41;;;15.76
40199;BMP280;25906;43.536;26.068;2023-10-08T00:21:26;99014.41;;;15.69
40199;BMP280;25906;43.536;26.068;2023-10-08T00:24:12;99011.72;;;15.69
40199;BMP280;25906;43.536;26.068;2023-10-08T00:26:57;99007.41;;;15.71
40199;BMP280;25906;43.536;26.068;2023-10-08T00:29:43;99004.91;;;15.68
40199;BMP280;25906;43.536;26.068;2023-10-08T00:32:29;99004.41;;;15.78
40199;BMP280;25906;43.536;26.068;2023-10-08T00:35:15;98995.66;;;15.78
40199;BMP280;25906;43.536;26.068;2023-10-08T00:38:05;99001.19;;;15.74
40199;BMP280;25906;43.536;26.068;2023-10-08T00:40:53;98989.75;;;15.74
40199;BMP280;25906;43.536;26.068;2023-10-08T00:43:41;98990.31;;;15.78
40199;BMP280;25906;43.536;26.068;2023-10-08T00:46:27;98996.16;;;15.76
40199;BMP280;25906;43.536;26.068;2023-10-08T00:49:22;98989.00;;;15.82
40199;BMP280;25906;43.536;26.068;2023-10-08T00:52:11;98985.47;;;15.76
40199;BMP280;25906;43.536;26.068;2023-10-08T00:54:58;98983.06;;;15.78
40199;BMP280;25906;43.536;26.068;2023-10-08T00:57:55;98985.88;;;15.84
40199;BMP280;25906;43.536;26.068;2023-10-08T01:00:43;98972.22;;;15.91
40199;BMP280;25906;43.536;26.068;2023-10-08T01:03:29;98968.59;;;15.94
40199;BMP280;25906;43.536;26.068;2023-10-08T01:06:14;98966.13;;;15.90
40199;BMP280;25906;43.536;26.068;2023-10-08T01:09:03;98967.72;;;15.97
40199;BMP280;25906;43.536;26.068;2023-10-08T01:12:15;98969.66;;;15.96
40199;BMP280;25906;43.536;26.068;2023-10-08T01:15:11;98968.84;;;16.05
40199;BMP280;25906;43.536;26.068;2023-10-08T01:18:08;98961.72;;;16.11
40199;BMP280;25906;43.536;26.068;2023-10-08T01:21:13;98965.69;;;16.16
40199;BMP280;25906;43.536;26.068;2023-10-08T01:24:15;98956.22;;;16.15
40199;BMP280;25906;43.536;26.068;2023-10-08T01:27:02;98953.38;;;16.18
40199;BMP280;25906;43.536;26.068;2023-10-08T01:29:56;98950.09;;;16.23
40199;BMP280;25906;43.536;26.068;2023-10-08T01:32:53;98950.38;;;16.25
40199;BMP280;25906;43.536;26.068;2023-10-08T01:35:39;98945.28;;;16.27
40199;BMP280;25906;43.536;26.068;2023-10-08T01:38:25;98951.81;;;16.26
40199;BMP280;25906;43.536;26.068;2023-10-08T01:41:13;98942.94;;;16.29
40199;BMP280;25906;43.536;26.068;2023-10-08T01:44:04;98938.22;;;16.24
40199;BMP280;25906;43.536;26.068;2023-10-08T01:46:53;98946.09;;;16.19
40199;BMP280;25906;43.536;26.068;2023-10-08T01:49:43;98942.69;;;16.18
40199;BMP280;25906;43.536;26.068;2023-10-08T01:52:32;98946.44;;;16.11
40199;BMP280;25906;43.536;26.068;2023-10-08T01:55:19;98939.47;;;16.14
40199;BMP280;25906;43.536;26.068;2023-10-08T01:58:05;98935.31;;;16.13
40199;BMP280;25906;43.536;26.068;2023-10-08T02:00:51;98932.97;;;16.06
40199;BMP280;25906;43.536;26.068;2023-10-08T02:03:37;98940.66;;;16.13
40199;BMP280;25906;43.536;26.068;2023-10-08T02:06:22;98927.75;;;16.11
40199;BMP280;25906;43.536;26.068;2023-10-08T02:09:08;98924.06;;;16.09
40199;BMP280;25906;43.536;26.068;2023-10-08T02:11:55;98912.25;;;16.01
40199;BMP280;25906;43.536;26.068;2023-10-08T02:14:40;98914.97;;;15.92
40199;BMP280;25906;43.536;26.068;2023-10-08T02:17:26;98914.22;;;15.91
40199;BMP280;25906;43.536;26.068;2023-10-08T02:20:13;98916.31;;;15.87
40199;BMP280;25906;43.536;26.068;2023-10-08T02:23:01;98915.22;;;15.94
40199;BMP280;25906;43.536;26.068;2023-10-08T02:25:47;98906.22;;;15.91
40199;BMP280;25906;43.536;26.068;2023-10-08T02:28:33;98907.00;;;15.83
40199;BMP280;25906;43.536;26.068;2023-10-08T02:31:18;98910.81;;;15.91
40199;BMP280;25906;43.536;26.068;2023-10-08T02:34:05;98905.16;;;15.89
40199;BMP280;25906;43.536;26.068;2023-10-08T02:36:52;98906.81;;;15.86
40199;BMP280;25906;43.536;26.068;2023-10-08T02:39:38;98910.06;;;15.90
40199;BMP280;25906;43.536;26.068;2023-10-08T02:42:25;98909.31;;;15.90
40199;BMP280;25906;43.536;26.068;2023-10-08T02:45:12;98906.66;;;15.90
40199;BMP280;25906;43.536;26.068;2023-10-08T02:47:58;98900.56;;;15.89
40199;BMP280;25906;43.536;26.068;2023-10-08T02:50:44;98900.75;;;15.86
40199;BMP280;25906;43.536;26.068;2023-10-08T02:53:30;98900.81;;;15.77
40199;BMP280;25906;43.536;26.068;2023-10-08T02:56:16;98907.78;;;15.74
40199;BMP280;25906;43.536;26.068;2023-10-08T02:59:01;98904.69;;;15.67
40199;BMP280;25906;43.536;26.068;2023-10-08T03:01:47;98904.41;;;15.65
40199;BMP280;25906;43.536;26.068;2023-10-08T03:04:36;98912.41;;;15.65
40199;BMP280;25906;43.536;26.068;2023-10-08T03:07:21;98907.28;;;15.61
40199;BMP280;25906;43.536;26.068;2023-10-08T03:10:07;98902.91;;;15.64
40199;BMP280;25906;43.536;26.068;2023-10-08T03:13:03;98910.03;;;15.67
40199;BMP280;25906;43.536;26.068;2023-10-08T03:15:55;98892.69;;;15.62
40199;BMP280;25906;43.536;26.068;2023-10-08T03:18:46;98888.44;;;15.55
40199;BMP280;25906;43.536;26.068;2023-10-08T03:21:35;98892.63;;;15.47
40199;BMP280;25906;43.536;26.068;2023-10-08T03:24:24;98893.19;;;15.51
40199;BMP280;25906;43.536;26.068;2023-10-08T03:27:16;98899.75;;;15.41
40199;BMP280;25906;43.536;26.068;2023-10-08T03:30:06;98892.94;;;15.40
40199;BMP280;25906;43.536;26.068;2023-10-08T03:32:52;98899.91;;;15.38
40199;BMP280;25906;43.536;26.068;2023-10-08T03:35:40;98892.09;;;15.25
40199;BMP280;25906;43.536;26.068;2023-10-08T03:38:28;98895.34;;;15.29
40199;BMP280;25906;43.536;26.068;2023-10-08T03:41:29;98895.94;;;15.24
40199;BMP280;25906;43.536;26.068;2023-10-08T03:44:17;98886.31;;;15.27
40199;BMP280;25906;43.536;26.068;2023-10-08T03:47:05;98895.38;;;15.20
40199;BMP280;25906;43.536;26.068;2023-10-08T03:49:56;98900.72;;;15.20
40199;BMP280;25906;43.536;26.068;2023-10-08T03:52:41;98889.88;;;15.24
40199;BMP280;25906;43.536;26.068;2023-10-08T03:55:29;98883.53;;;15.21
40199;BMP280;25906;43.536;26.068;2023-10-08T03:58:20;98886.91;;;15.22
40199;BMP280;25906;43.536;26.068;2023-10-08T04:01:23;98889.13;;;15.23
40199;BMP280;25906;43.536;26.068;2023-10-08T04:04:09;98889.75;;;15.27
40199;BMP280;25906;43.536;26.068;2023-10-08T04:06:59;98885.88;;;15.28
40199;BMP280;25906;43.536;26.068;2023-10-08T04:10:05;98890.59;;;15.24
40199;BMP280;25906;43.536;26.068;2023-10-08T04:12:54;98890.91;;;15.17
40199;BMP280;25906;43.536;26.068;2023-10-08T04:15:39;98888.13;;;15.12
40199;BMP280;25906;43.536;26.068;2023-10-08T04:18:25;98893.31;;;15.15
40199;BMP280;25906;43.536;26.068;2023-10-08T04:21:11;98883.38;;;15.06
40199;BMP280;25906;43.536;26.068;2023-10-08T04:23:57;98882.38;;;15.04
40199;BMP280;25906;43.536;26.068;2023-10-08T04:26:43;98878.38;;;14.99
40199;BMP280;25906;43.536;26.068;2023-10-08T04:29:29;98889.47;;;15.07
40199;BMP280;25906;43.536;26.068;2023-10-08T04:32:17;98879.97;;;15.06
40199;BMP280;25906;43.536;26.068;2023-10-08T04:35:10;98883.53;;;15.12
40199;BMP280;25906;43.536;26.068;2023-10-08T04:38:00;98876.44;;;15.00
40199;BMP280;25906;43.536;26.068;2023-10-08T04:40:45;98862.56;;;15.05
40199;BMP280;25906;43.536;26.068;2023-10-08T04:43:34;98868.28;;;15.13
40199;BMP280;25906;43.536;26.068;2023-10-08T04:46:23;98875.38;;;15.06
40199;BMP280;25906;43.536;26.068;2023-10-08T04:49:23;98881.47;;;15.07
40199;BMP280;25906;43.536;26.068;2023-10-08T04:52:12;98885.31;;;15.06
40199;BMP280;25906;43.536;26.068;2023-10-08T04:55:01;98876.88;;;15.07
40199;BMP280;25906;43.536;26.068;2023-10-08T04:57:57;98887.38;;;15.20
40199;BMP280;25906;43.536;26.068;2023-10-08T05:00:44;98887.41;;;15.11
40199;BMP280;25906;43.536;26.068;2023-10-08T05:03:38;98886.16;;;15.30
40199;BMP280;25906;43.536;26.068;2023-10-08T05:06:34;98892.09;;;15.25
40199;BMP280;25906;43.536;26.068;2023-10-08T05:09:20;98886.44;;;15.32
40199;BMP280;25906;43.536;26.068;2023-10-08T05:12:05;98871.94;;;15.33
40199;BMP280;25906;43.536;26.068;2023-10-08T05:15:01;98883.31;;;15.34
40199;BMP280;25906;43.536;26.068;2023-10-08T05:18:16;98888.53;;;15.37
40199;BMP280;25906;43.536;26.068;2023-10-08T05:21:04;98882.88;;;15.44
40199;BMP280;25906;43.536;26.068;2023-10-08T05:24:09;98893.44;;;15.63
40199;BMP280;25906;43.536;26.068;2023-10-08T05:26:57;98894.75;;;15.67
40199;BMP280;25906;43.536;26.068;2023-10-08T05:30:04;98889.25;;;15.71
40199;BMP280;25906;43.536;26.068;2023-10-08T05:33:10;98893.56;;;15.77
40199;BMP280;25906;43.536;26.068;2023-10-08T05:36:09;98882.06;;;15.86
40199;BMP280;25906;43.536;26.068;2023-10-08T05:39:03;98894.91;;;15.96
40199;BMP280;25906;43.536;26.068;2023-10-08T05:42:09;98887.59;;;16.06
40199;BMP280;25906;43.536;26.068;2023-10-08T05:45:13;98884.75;;;16.09
40199;BMP280;25906;43.536;26.068;2023-10-08T05:47:59;98886.91;;;16.20
40199;BMP280;25906;43.536;26.068;2023-10-08T05:51:06;98889.34;;;16.33
40199;BMP280;25906;43.536;26.068;2023-10-08T05:53:58;98901.41;;;16.43
40199;BMP280;25906;43.536;26.068;2023-10-08T05:56:44;98900.63;;;16.51
40199;BMP280;25906;43.536;26.068;2023-10-08T05:59:49;98903.03;;;16.64
40199;BMP280;25906;43.536;26.068;2023-10-08T06:02:40;98899.19;;;16.80
40199;BMP280;25906;43.536;26.068;2023-10-08T06:05:28;98901.50;;;16.87
40199;BMP280;25906;43.536;26.068;2023-10-08T06:08:18;98896.91;;;17.02
40199;BMP280;25906;43.536;26.068;2023-10-08T06:11:23;98897.31;;;17.15
40199;BMP280;25906;43.536;26.068;2023-10-08T06:14:28;98894.56;;;17.24
40199;BMP280;25906;43.536;26.068;2023-10-08T06:17:27;98901.34;;;17.40
40199;BMP280;25906;43.536;26.068;2023-10-08T06:20:41;98899.84;;;17.53
40199;BMP280;25906;43.536;26.068;2023-10-08T06:23:30;98890.97;;;17.62
40199;BMP280;25906;43.536;26.068;2023-10-08T06:26:20;98900.81;;;17.70
40199;BMP280;25906;43.536;26.068;2023-10-08T06:29:10;98891.94;;;17.79
40199;BMP280;25906;43.536;26.068;2023-10-08T06:32:04;98884.97;;;17.87
40199;BMP280;25906;43.536;26.068;2023-10-08T06:34:50;98874.13;;;17.96
40199;BMP280;25906;43.536;26.068;2023-10-08T06:37:36;98882.09;;;18.11
40199;BMP280;25906;43.536;26.068;2023-10-08T06:40:21;98892.41;;;18.18
40199;BMP280;25906;43.536;26.068;2023-10-08T06:43:22;98890.63;;;18.35
40199;BMP280;25906;43.536;26.068;2023-10-08T06:46:09;98885.41;;;18.46
40199;BMP280;25906;43.536;26.068;2023-10-08T06:49:01;98869.84;;;18.50
40199;BMP280;25906;43.536;26.068;2023-10-08T06:51:47;98867.41;;;18.52
40199;BMP280;25906;43.536;26.068;2023-10-08T06:54:33;98874.84;;;18.63
40199;BMP280;25906;43.536;26.068;2023-10-08T06:57:20;98864.50;;;18.81
40199;BMP280;25906;43.536;26.068;2023-10-08T07:00:07;98871.59;;;18.84
40199;BMP280;25906;43.536;26.068;2023-10-08T07:02:57;98859.25;;;18.98
40199;BMP280;25906;43.536;26.068;2023-10-08T07:05:47;98866.09;;;18.99
40199;BMP280;25906;43.536;26.068;2023-10-08T07:08:44;98848.16;;;19.16
40199;BMP280;25906;43.536;26.068;2023-10-08T07:11:33;98843.84;;;19.30
40199;BMP280;25906;43.536;26.068;2023-10-08T07:14:25;98846.03;;;19.26
40199;BMP280;25906;43.536;26.068;2023-10-08T07:17:14;98844.47;;;19.51
40199;BMP280;25906;43.536;26.068;2023-10-08T07:20:06;98832.81;;;19.70
40199;BMP280;25906;43.536;26.068;2023-10-08T07:22:58;98835.03;;;19.83
40199;BMP280;25906;43.536;26.068;2023-10-08T07:25:52;98831.44;;;19.97
40199;BMP280;25906;43.536;26.068;2023-10-08T07:28:39;98825.59;;;20.10
40199;BMP280;25906;43.536;26.068;2023-10-08T07:31:25;98828.81;;;20.14
40199;BMP280;25906;43.536;26.068;2023-10-08T07:34:15;98827.59;;;20.31
40199;BMP280;25906;43.536;26.068;2023-10-08T07:37:01;98821.25;;;20.40
40199;BMP280;25906;43.536;26.068;2023-10-08T07:39:46;98817.56;;;20.32
40199;BMP280;25906;43.536;26.068;2023-10-08T07:42:32;98814.16;;;20.59
40199;BMP280;25906;43.536;26.068;2023-10-08T07:45:17;98809.97;;;20.80
40199;BMP280;25906;43.536;26.068;2023-10-08T07:48:03;98797.75;;;20.74
40199;BMP280;25906;43.536;26.068;2023-10-08T07:50:56;98802.84;;;20.88
40199;BMP280;25906;43.536;26.068;2023-10-08T07:53:42;98796.47;;;20.97
40199;BMP280;25906;43.536;26.068;2023-10-08T07:56:27;98798.41;;;21.07
40199;BMP280;25906;43.536;26.068;2023-10-08T07:59:14;98786.38;;;21.25
40199;BMP280;25906;43.536;26.068;2023-10-08T08:02:01;98791.91;;;21.44
40199;BMP280;25906;43.536;26.068;2023-10-08T08:04:53;98791.59;;;21.58
40199;BMP280;25906;43.536;26.068;2023-10-08T08:07:39;98785.44;;;21.63
40199;BMP280;25906;43.536;26.068;2023-10-08T08:10:24;98800.22;;;21.92
40199;BMP280;25906;43.536;26.068;2023-10-08T08:13:11;98783.38;;;21.86
40199;BMP280;25906;43.536;26.068;2023-10-08T08:15:56;98785.44;;;21.99
40199;BMP280;25906;43.536;26.068;2023-10-08T08:18:47;98778.22;;;22.18
40199;BMP280;25906;43.536;26.068;2023-10-08T08:21:34;98771.91;;;22.39
40199;BMP280;25906;43.536;26.068;2023-10-08T08:24:19;98752.78;;;22.37
40199;BMP280;25906;43.536;26.068;2023-10-08T08:27:21;98760.59;;;22.41
40199;BMP280;25906;43.536;26.068;2023-10-08T08:30:10;98749.91;;;22.60
40199;BMP280;25906;43.536;26.068;2023-10-08T08:32:55;98750.22;;;22.50
40199;BMP280;25906;43.536;26.068;2023-10-08T08:35:41;98753.25;;;22.66
40199;BMP280;25906;43.536;26.068;2023-10-08T08:38:27;98737.72;;;22.72
40199;BMP280;25906;43.536;26.068;2023-10-08T08:41:17;98743.41;;;22.92
40199;BMP280;25906;43.536;26.068;2023-10-08T08:44:03;98750.25;;;22.93
40199;BMP280;25906;43.536;26.068;2023-10-08T08:46:51;98723.97;;;23.12
40199;BMP280;25906;43.536;26.068;2023-10-08T08:49:38;98725.53;;;23.27
40199;BMP280;25906;43.536;26.068;2023-10-08T08:52:24;98738.16;;;23.37
40199;BMP280;25906;43.536;26.068;2023-10-08T08:55:10;98739.56;;;23.57
40199;BMP280;25906;43.536;26.068;2023-10-08T08:58:00;98726.00;;;23.62
40199;BMP280;25906;43.536;26.068;2023-10-08T09:00:47;98716.22;;;23.59
40199;BMP280;25906;43.536;26.068;2023-10-08T09:03:32;98706.47;;;23.83
40199;BMP280;25906;43.536;26.068;2023-10-08T09:06:18;98724.41;;;23.99
40199;BMP280;25906;43.536;26.068;2023-10-08T09:09:04;98696.84;;;23.87
40199;BMP280;25906;43.536;26.068;2023-10-08T09:12:07;98696.00;;;23.79
40199;BMP280;25906;43.536;26.068;2023-10-08T09:15:01;98698.19;;;24.07
40199;BMP280;25906;43.536;26.068;2023-10-08T09:17:48;98694.28;;;24.34
40199;BMP280;25906;43.536;26.068;2023-10-08T09:20:37;98702.19;;;24.19
40199;BMP280;25906;43.536;26.068;2023-10-08T09:23:33;98693.94;;;24.24
40199;BMP280;25906;43.536;26.068;2023-10-08T09:26:25;98697.78;;;24.29
40199;BMP280;25906;43.536;26.068;2023-10-08T09:29:11;98712.66;;;24.48
40199;BMP280;25906;43.536;26.068;2023-10-08T09:31:58;98711.41;;;24.76
40199;BMP280;25906;43.536;26.068;2023-10-08T09:34:43;98704.41;;;24.80
40199;BMP280;25906;43.536;26.068;2023-10-08T09:37:29;98699.81;;;24.88
40199;BMP280;25906;43.536;26.068;2023-10-08T09:40:17;98688.78;;;24.86
40199;BMP280;25906;43.536;26.068;2023-10-08T09:43:06;98691.25;;;24.84
40199;BMP280;25906;43.536;26.068;2023-10-08T09:46:00;98692.72;;;24.85
40199;BMP280;25906;43.536;26.068;2023-10-08T09:48:51;98679.66;;;25.10
40199;BMP280;25906;43.536;26.068;2023-10-08T09:51:40;98671.63;;;25.04
40199;BMP280;25906;43.536;26.068;2023-10-08T09:54:28;98679.78;;;24.91
40199;BMP280;25906;43.536;26.068;2023-10-08T09:57:18;98664.03;;;25.03
40199;BMP280;25906;43.536;26.068;2023-10-08T10:00:05;98661.06;;;25.35
40199;BMP280;25906;43.536;26.068;2023-10-08T10:02:58;98665.09;;;25.41
40199;BMP280;25906;43.536;26.068;2023-10-08T10:05:44;98659.22;;;25.50
40199;BMP280;25906;43.536;26.068;2023-10-08T10:08:30;98647.88;;;25.80
40199;BMP280;25906;43.536;26.068;2023-10-08T10:11:20;98654.59;;;25.87
40199;BMP280;25906;43.536;26.068;2023-10-08T10:14:12;98654.47;;;25.92
40199;BMP280;25906;43.536;26.068;2023-10-08T10:17:19;98649.19;;;25.94
40199;BMP280;25906;43.536;26.068;2023-10-08T10:20:07;98640.69;;;25.90
40199;BMP280;25906;43.536;26.068;2023-10-08T10:22:58;98630.69;;;26.13
40199;BMP280;25906;43.536;26.068;2023-10-08T10:25:44;98621.78;;;26.05
40199;BMP280;25906;43.536;26.068;2023-10-08T10:28:30;98625.63;;;26.10
40199;BMP280;25906;43.536;26.068;2023-10-08T10:31:19;98629.50;;;26.29
40199;BMP280;25906;43.536;26.068;2023-10-08T10:34:08;98633.81;;;26.25
40199;BMP280;25906;43.536;26.068;2023-10-08T10:36:58;98603.44;;;26.26
40199;BMP280;25906;43.536;26.068;2023-10-08T10:40:06;98592.50;;;26.11
40199;BMP280;25906;43.536;26.068;2023-10-08T10:42:56;98589.59;;;26.02
40199;BMP280;25906;43.536;26.068;2023-10-08T10:45:42;98604.91;;;25.92
40199;BMP280;25906;43.536;26.068;2023-10-08T10:48:29;98603.09;;;26.30
40199;BMP280;25906;43.536;26.068;2023-10-08T10:51:19;98592.94;;;26.23
40199;BMP280;25906;43.536;26.068;2023-10-08T10:54:05;98587.59;;;26.02
40199;BMP280;25906;43.536;26.068;2023-10-08T10:56:55;98573.91;;;26.15
40199;BMP280;25906;43.536;26.068;2023-10-08T10:59:51;98571.16;;;26.00
40199;BMP280;25906;43.536;26.068;2023-10-08T11:02:39;98566.53;;;25.88
40199;BMP280;25906;43.536;26.068;2023-10-08T11:05:32;98560.09;;;25.98
40199;BMP280;25906;43.536;26.068;2023-10-08T11:08:22;98574.16;;;26.32
40199;BMP280;25906;43.536;26.068;2023-10-08T11:11:10;98565.88;;;26.45
40199;BMP280;25906;43.536;26.068;2023-10-08T11:13:59;98565.56;;;26.72
40199;BMP280;25906;43.536;26.068;2023-10-08T11:16:48;98579.13;;;26.64
40199;BMP280;25906;43.536;26.068;2023-10-08T11:19:33;98553.56;;;26.82
40199;BMP280;25906;43.536;26.068;2023-10-08T11:22:20;98559.91;;;26.70
40199;BMP280;25906;43.536;26.068;2023-10-08T11:25:25;98560.84;;;26.65
40199;BMP280;25906;43.536;26.068;2023-10-08T11:28:16;98565.69;;;26.51
40199;BMP280;25906;43.536;26.068;2023-10-08T11:31:04;98558.44;;;26.53
40199;BMP280;25906;43.536;26.068;2023-10-08T11:34:02;98564.53;;;26.24
40199;BMP280;25906;43.536;26.068;2023-10-08T11:36:54;98573.06;;;26.43
40199;BMP280;25906;43.536;26.068;2023-10-08T11:39:40;98562.22;;;26.50
40199;BMP280;25906;43.536;26.068;2023-10-08T11:42:30;98561.31;;;26.40
40199;BMP280;25906;43.536;26.068;2023-10-08T11:45:18;98552.44;;;26.32
40199;BMP280;25906;43.536;26.068;2023-10-08T11:48:05;98543.19;;;26.28
40199;BMP280;25906;43.536;26.068;2023-10-08T11:50:57;98537.97;;;26.30
40199;BMP280;25906;43.536;26.068;2023-10-08T11:53:51;98546.25;;;26.24
40199;BMP280;25906;43.536;26.068;2023-10-08T11:56:37;98527.88;;;26.45
40199;BMP280;25906;43.536;26.068;2023-10-08T11:59:23;98541.59;;;26.32
40199;BMP280;25906;43.536;26.068;2023-10-08T12:02:11;98535.03;;;26.20
40199;BMP280;25906;43.536;26.068;2023-10-08T12:05:01;98542.56;;;25.99
40199;BMP280;25906;43.536;26.068;2023-10-08T12:07:52;98540.38;;;25.90
40199;BMP280;25906;43.536;26.068;2023-10-08T12:10:38;98541.28;;;25.57
40199;BMP280;25906;43.536;26.068;2023-10-08T12:13:23;98537.44;;;25.88
40199;BMP280;25906;43.536;26.068;2023-10-08T12:16:15;98534.84;;;26.18
40199;BMP280;25906;43.536;26.068;2023-10-08T12:19:03;98542.28;;;26.25
40199;BMP280;25906;43.536;26.068;2023-10-08T12:22:00;98534.22;;;26.56
40199;BMP280;25906;43.536;26.068;2023-10-08T12:24:47;98526.78;;;26.48
40199;BMP280;25906;43.536;26.068;2023-10-08T12:27:33;98517.16;;;26.40
40199;BMP280;25906;43.536;26.068;2023-10-08T12:30:19;98516.28;;;26.60
40199;BMP280;25906;43.536;26.068;2023-10-08T12:33:13;98509.22;;;26.49
40199;BMP280;25906;43.536;26.068;2023-10-08T12:36:01;98508.13;;;26.45
40199;BMP280;25906;43.536;26.068;2023-10-08T12:38:56;98507.94;;;26.50
40199;BMP280;25906;43.536;26.068;2023-10-08T12:41:44;98505.81;;;26.72
40199;BMP280;25906;43.536;26.068;2023-10-08T12:44:30;98499.47;;;26.77
40199;BMP280;25906;43.536;26.068;2023-10-08T12:47:15;98506.50;;;26.49
40199;BMP280;25906;43.536;26.068;2023-10-08T12:50:01;98512.28;;;26.53
40199;BMP280;25906;43.536;26.068;2023-10-08T12:52:46;98509.56;;;26.69
40199;BMP280;25906;43.536;26.068;2023-10-08T12:55:40;98504.16;;;26.69
40199;BMP280;25906;43.536;26.068;2023-10-08T12:58:26;98508.88;;;26.68
40199;BMP280;25906;43.536;26.068;2023-10-08T13:01:15;98503.09;;;26.79
40199;BMP280;25906;43.536;26.068;2023-10-08T13:04:03;98499.63;;;26.64
40199;BMP280;25906;43.536;26.068;2023-10-08T13:06:54;98494.38;;;26.66
40199;BMP280;25906;43.536;26.068;2023-10-08T13:09:42;98494.19;;;26.79
40199;BMP280;25906;43.536;26.068;2023-10-08T13:12:28;98502.16;;;26.92
40199;BMP280;25906;43.536;26.068;2023-10-08T13:15:13;98489.84;;;26.91
40199;BMP280;25906;43.536;26.068;2023-10-08T13:17:59;98492.56;;;26.83
40199;BMP280;25906;43.536;26.068;2023-10-08T13:20:48;98485.69;;;26.60
40199;BMP280;25906;43.536;26.068;2023-10-08T13:23:33;98498.19;;;26.47
40199;BMP280;25906;43.536;26.068;2023-10-08T13:26:20;98503.22;;;26.43
40199;BMP280;25906;43.536;26.068;2023-10-08T13:29:09;98496.72;;;26.39
40199;BMP280;25906;43.536;26.068;2023-10-08T13:31:55;98500.69;;;26.30
40199;BMP280;25906;43.536;26.068;2023-10-08T13:34:40;98495.97;;;26.31
40199;BMP280;25906;43.536;26.068;2023-10-08T13:37:27;98488.34;;;26.14
40199;BMP280;25906;43.536;26.068;2023-10-08T13:40:12;98511.81;;;25.97
40199;BMP280;25906;43.536;26.068;2023-10-08T13:43:01;98520.09;;;25.91
40199;BMP280;25906;43.536;26.068;2023-10-08T13:45:46;98499.22;;;25.71
40199;BMP280;25906;43.536;26.068;2023-10-08T13:48:32;98513.56;;;25.87
40199;BMP280;25906;43.536;26.068;2023-10-08T13:51:19;98480.00;;;25.97
40199;BMP280;25906;43.536;26.068;2023-10-08T13:54:11;98504.44;;;26.12
40199;BMP280;25906;43.536;26.068;2023-10-08T13:56:57;98514.59;;;26.27
40199;BMP280;25906;43.536;26.068;2023-10-08T13:59:42;98501.38;;;26.16
40199;BMP280;25906;43.536;26.068;2023-10-08T14:02:28;98490.72;;;26.18
40199;BMP280;25906;43.536;26.068;2023-10-08T14:05:15;98495.81;;;26.29
40199;BMP280;25906;43.536;26.068;2023-10-08T14:08:01;98504.84;;;26.31
40199;BMP280;25906;43.536;26.068;2023-10-08T14:10:47;98503.91;;;26.21
40199;BMP280;25906;43.536;26.068;2023-10-08T14:13:33;98513.88;;;26.26
40199;BMP280;25906;43.536;26.068;2023-10-08T14:16:21;98516.53;;;26.11
40199;BMP280;25906;43.536;26.068;2023-10-08T14:19:14;98512.72;;;25.99
40199;BMP280;25906;43.536;26.068;2023-10-08T14:21:59;98509.41;;;25.78
40199;BMP280;25906;43.536;26.068;2023-10-08T14:24:49;98517.16;;;25.74
40199;BMP280;25906;43.536;26.068;2023-10-08T14:27:43;98523.47;;;25.69
40199;BMP280;25906;43.536;26.068;2023-10-08T14:30:37;98535.13;;;25.56
40199;BMP280;25906;43.536;26.068;2023-10-08T14:33:26;98539.38;;;25.44
40199;BMP280;25906;43.536;26.068;2023-10-08T14:36:16;98545.34;;;25.43
40199;BMP280;25906;43.536;26.068;2023-10-08T14:39:21;98557.06;;;25.38
40199;BMP280;25906;43.536;26.068;2023-10-08T14:42:26;98559.72;;;25.30
40199;BMP280;25906;43.536;26.068;2023-10-08T14:45:30;98551.31;;;25.21
40199;BMP280;25906;43.536;26.068;2023-10-08T14:48:20;98560.81;;;25.06
40199;BMP280;25906;43.536;26.068;2023-10-08T14:51:07;98567.59;;;25.00
40199;BMP280;25906;43.536;26.068;2023-10-08T14:53:53;98566.41;;;24.88
40199;BMP280;25906;43.536;26.068;2023-10-08T14:56:38;98578.28;;;24.85
40199;BMP280;25906;43.536;26.068;2023-10-08T14:59:24;98573.69;;;24.72
40199;BMP280;25906;43.536;26.068;2023-10-08T15:02:13;98578.47;;;24.66
40199;BMP280;25906;43.536;26.068;2023-10-08T15:04:59;98570.00;;;24.49
40199;BMP280;25906;43.536;26.068;2023-10-08T15:07:46;98571.47;;;24.50
40199;BMP280;25906;43.536;26.068;2023-10-08T15:10:31;98580.38;;;24.45
40199;BMP280;25906;43.536;26.068;2023-10-08T15:13:18;98594.50;;;24.30
40199;BMP280;25906;43.536;26.068;2023-10-08T15:16:04;98599.59;;;24.34
40199;BMP280;25906;43.536;26.068;2023-10-08T15:18:50;98595.63;;;24.22
40199;BMP280;25906;43.536;26.068;2023-10-08T15:21:36;98598.13;;;24.20
40199;BMP280;25906;43.536;26.068;2023-10-08T15:24:21;98598.88;;;24.07
40199;BMP280;25906;43.536;26.068;2023-10-08T15:27:07;98612.00;;;24.03
40199;BMP280;25906;43.536;26.068;2023-10-08T15:29:55;98605.44;;;23.99
40199;BMP280;25906;43.536;26.068;2023-10-08T15:32:43;98615.84;;;23.95
40199;BMP280;25906;43.536;26.068;2023-10-08T15:35:33;98610.75;;;23.91
40199;BMP280;25906;43.536;26.068;2023-10-08T15:38:18;98611.13;;;23.82
40199;BMP280;25906;43.536;26.068;2023-10-08T15:41:03;98614.16;;;23.78
40199;BMP280;25906;43.536;26.068;2023-10-08T15:43:50;98623.53;;;23.77
40199;BMP280;25906;43.536;26.068;2023-10-08T15:46:37;98613.94;;;23.63
40199;BMP280;25906;43.536;26.068;2023-10-08T15:49:22;98625.69;;;23.66
40199;BMP280;25906;43.536;26.068;2023-10-08T15:52:08;98621.63;;;23.59
40199;BMP280;25906;43.536;26.068;2023-10-08T15:54:53;98623.97;;;23.50
40199;BMP280;25906;43.536;26.068;2023-10-08T15:57:39;98632.59;;;23.48
40199;BMP280;25906;43.536;26.068;2023-10-08T16:00:24;98631.66;;;23.46
40199;BMP280;25906;43.536;26.068;2023-10-08T16:03:10;98638.41;;;23.39